Smokey Point, Washington
Current Conditions -  °F | °C
As of 6:55 PM on Wednesday 26 Nov 2014 (Local Time) from KAWO Reporting Station
Overcast Overcast  
Wind Chill: 57°   Ceiling: 3700
Heat Index: 57°   Visibility: 10mi
Dew Point: 50°   Wind: 10mph
Humidity: 77%   Direction: 170°S
Pressure: 29.91"   Gusts: NA
Location:  48.2067°N, 121.947°W
Report Text: KAWO 270255Z AUTO 17009KT 10SM BKN037 OVC048 14/10 A2991 RMK AO1 57027
Loading
Personal Weather Stations






























Interactive Weather Map New forecast layout! Learn more

10-Day Weather Forecast

Advertisements
Track Severe Weather on mobile